createdAt,value
2023-04-11T00:01:49.819Z,102224.00
2023-04-11T00:04:18.002Z,102229.28
2023-04-11T00:06:45.209Z,102217.00
2023-04-11T00:09:12.526Z,102160.09
2023-04-11T00:11:39.598Z,102217.88
2023-04-11T00:14:08.892Z,102224.03
2023-04-11T00:16:35.975Z,102193.38
2023-04-11T00:19:03.518Z,102221.41
2023-04-11T00:21:30.451Z,102216.16
2023-04-11T00:23:57.333Z,102224.91
2023-04-11T00:26:24.358Z,102228.41
2023-04-11T00:28:51.291Z,102230.19
2023-04-11T00:31:18.194Z,102214.41
2023-04-11T00:33:45.283Z,102228.41
2023-04-11T00:36:12.302Z,102196.88
2023-04-11T00:38:39.309Z,102224.03
2023-04-11T00:41:06.637Z,102196.81
2023-04-11T00:43:33.636Z,102213.50
2023-04-11T00:46:01.146Z,102216.13
2023-04-11T00:48:28.649Z,102197.72
2023-04-11T00:50:56.041Z,102201.19
2023-04-11T00:53:23.968Z,102153.94
2023-04-11T00:55:51.572Z,102211.72
2023-04-11T00:58:18.920Z,102200.34
2023-04-11T01:00:49.769Z,102205.56
2023-04-11T01:03:18.912Z,102195.03
2023-04-11T01:05:48.105Z,102195.03
2023-04-11T01:08:15.714Z,102183.63
2023-04-11T01:10:42.923Z,102170.50
2023-04-11T01:13:10.668Z,102200.28
2023-04-11T01:15:37.741Z,102200.28
2023-04-11T01:18:05.791Z,102199.41
2023-04-11T01:20:33.506Z,102115.38
2023-04-11T01:23:03.104Z,102142.50
2023-04-11T01:25:30.406Z,102176.63
2023-04-11T01:27:57.480Z,102185.34
2023-04-11T01:30:24.716Z,102178.34
2023-04-11T01:32:51.877Z,102182.72
2023-04-11T01:35:19.263Z,102191.47
2023-04-11T01:37:46.533Z,102133.72
2023-04-11T01:40:19.468Z,102131.06
2023-04-11T01:42:47.637Z,102158.22
2023-04-11T01:45:15.271Z,102180.94
2023-04-11T01:47:42.351Z,102170.41
2023-04-11T01:50:09.711Z,102195.03
2023-04-11T01:52:36.653Z,102175.69
2023-04-11T01:55:04.235Z,102172.19
2023-04-11T01:57:31.314Z,102174.81
2023-04-11T01:59:58.394Z,102173.94
2023-04-11T02:02:26.216Z,102169.53
2023-04-11T02:04:53.125Z,102160.78
2023-04-11T02:07:21.043Z,102159.88
2023-04-11T02:09:47.927Z,102122.22
2023-04-11T02:12:15.168Z,102143.19
2023-04-11T02:14:46.220Z,102155.53
2023-04-11T02:17:14.364Z,102162.50
2023-04-11T02:19:41.802Z,102150.22
2023-04-11T02:22:09.363Z,102129.19
2023-04-11T02:24:44.058Z,102134.44
2023-04-11T02:27:11.341Z,102135.28
2023-04-11T02:29:38.583Z,102156.38
2023-04-11T02:32:05.755Z,102167.81
2023-04-11T02:34:32.768Z,102165.19
2023-04-11T02:36:59.724Z,102159.91
2023-04-11T02:39:27.063Z,102134.53
2023-04-11T02:41:55.876Z,102145.84
2023-04-11T02:44:23.004Z,102133.66
2023-04-11T02:46:50.921Z,102136.25
2023-04-11T02:49:17.918Z,102111.78
2023-04-11T02:51:47.658Z,102110.00
2023-04-11T02:54:14.477Z,102144.13
2023-04-11T02:56:41.784Z,102126.59
2023-04-11T02:59:08.900Z,102137.97
2023-04-11T03:01:37.777Z,102126.56
2023-04-11T03:04:05.690Z,102123.03
2023-04-11T03:06:43.924Z,102121.28
2023-04-11T03:09:11.806Z,102112.50
2023-04-11T03:11:38.785Z,102125.69
2023-04-11T03:14:06.028Z,102123.03
2023-04-11T03:16:33.153Z,102063.56
2023-04-11T03:19:00.558Z,102116.09
2023-04-11T03:21:27.885Z,102102.00
2023-04-11T03:23:55.104Z,102070.56
2023-04-11T03:26:21.982Z,102110.78
2023-04-11T03:28:49.453Z,102101.97
2023-04-11T03:31:19.224Z,102078.41
2023-04-11T03:33:47.242Z,102086.34
2023-04-11T03:36:14.724Z,102112.56
2023-04-11T03:38:42.075Z,102113.44
2023-04-11T03:41:09.098Z,102103.75
2023-04-11T03:43:36.225Z,102093.19
2023-04-11T03:46:03.985Z,102092.34
2023-04-11T03:48:38.206Z,102095.84
2023-04-11T03:51:08.382Z,102095.00
2023-04-11T03:54:01.747Z,102106.41
2023-04-11T03:56:36.022Z,102102.91
2023-04-11T03:59:03.434Z,102116.09
2023-04-11T04:01:41.144Z,102107.34
2023-04-11T04:04:08.685Z,102084.56
2023-04-11T04:06:38.995Z,102112.59
2023-04-11T04:09:07.176Z,102105.56
2023-04-11T04:11:46.380Z,102100.31
2023-04-11T04:14:14.322Z,102095.03
2023-04-11T04:16:41.461Z,102071.34
2023-04-11T04:19:08.978Z,102076.59
2023-04-11T04:21:38.122Z,102069.59
2023-04-11T04:24:06.313Z,102053.81
2023-04-11T04:27:01.145Z,102068.66
2023-04-11T04:29:49.124Z,102075.69
2023-04-11T04:32:28.940Z,102018.75
2023-04-11T04:35:01.594Z,102062.53
2023-04-11T04:37:34.372Z,102050.22
2023-04-11T04:40:13.234Z,102056.31
2023-04-11T04:43:02.380Z,102046.69
2023-04-11T04:45:45.674Z,102010.81
2023-04-11T04:48:17.948Z,102036.13
2023-04-11T04:50:45.782Z,102013.38
2023-04-11T04:53:13.353Z,102028.25
2023-04-11T04:55:46.601Z,102025.59
2023-04-11T04:58:14.673Z,102018.56
2023-04-11T05:00:41.817Z,102022.94
2023-04-11T05:03:20.990Z,102023.81
2023-04-11T05:05:49.812Z,102018.56
2023-04-11T05:08:19.482Z,102016.75
2023-04-11T05:10:46.718Z,102023.78
2023-04-11T05:13:14.677Z,102016.72
2023-04-11T05:15:48.320Z,102022.88
2023-04-11T05:18:15.787Z,102036.06
2023-04-11T05:20:43.411Z,102055.38
2023-04-11T05:23:14.408Z,102057.13
2023-04-11T05:25:41.768Z,102038.69
2023-04-11T05:28:12.692Z,102046.56
2023-04-11T05:30:39.716Z,102040.38
2023-04-11T05:33:06.781Z,102036.91
2023-04-11T05:35:33.945Z,102038.59
2023-04-11T05:38:00.856Z,102046.50
2023-04-11T05:40:27.940Z,102028.09
2023-04-11T05:42:54.767Z,102020.16
2023-04-11T05:45:22.479Z,102031.50
2023-04-11T05:47:49.576Z,101995.56
2023-04-11T05:50:16.581Z,102017.44
2023-04-11T05:52:43.652Z,102018.25
2023-04-11T05:55:11.226Z,101987.59
2023-04-11T05:57:38.206Z,102012.91
2023-04-11T06:00:13.577Z,102014.63
2023-04-11T06:02:44.266Z,102012.00
2023-04-11T06:05:12.241Z,102004.94
2023-04-11T06:07:40.363Z,102003.16
2023-04-11T06:10:08.315Z,101994.44
2023-04-11T06:12:35.889Z,101941.94
2023-04-11T06:15:03.964Z,101982.00
2023-04-11T06:17:31.217Z,101918.28
2023-04-11T06:19:58.280Z,101993.38
2023-04-11T06:22:25.225Z,101995.09
2023-04-11T06:24:52.199Z,102001.25
2023-04-11T06:27:19.122Z,101995.94
2023-04-11T06:29:46.475Z,102009.13
2023-04-11T06:32:13.369Z,102006.47
2023-04-11T06:34:40.360Z,102010.78
2023-04-11T06:37:08.252Z,102008.13
2023-04-11T06:39:35.776Z,102001.09
2023-04-11T06:42:03.121Z,102004.56
2023-04-11T06:44:32.331Z,101990.56
2023-04-11T06:46:59.544Z,101991.31
2023-04-11T06:49:27.299Z,101978.97
2023-04-11T06:51:55.885Z,101955.38
2023-04-11T06:54:23.073Z,101958.78
2023-04-11T06:56:52.745Z,101958.72
2023-04-11T06:59:20.608Z,101949.09
2023-04-11T07:01:48.827Z,101972.66
2023-04-11T07:04:16.453Z,101974.34
2023-04-11T07:06:43.577Z,101929.81
2023-04-11T07:09:10.619Z,101971.63
2023-04-11T07:11:38.662Z,101955.84
2023-04-11T07:14:06.020Z,101980.34
2023-04-11T07:16:33.337Z,101936.66
2023-04-11T07:19:00.215Z,101970.56
2023-04-11T07:21:32.101Z,101964.41
2023-04-11T07:24:00.654Z,101958.19
2023-04-11T07:26:32.370Z,101932.91
2023-04-11T07:29:00.141Z,101975.72
2023-04-11T07:31:27.573Z,101970.41
2023-04-11T07:33:54.904Z,101930.25
2023-04-11T07:36:22.511Z,101978.22
2023-04-11T07:38:49.466Z,101972.91
2023-04-11T07:41:16.484Z,101975.50
2023-04-11T07:43:43.675Z,101970.19
2023-04-11T07:46:12.346Z,101947.38
2023-04-11T07:48:39.864Z,101935.09
2023-04-11T07:51:06.863Z,101937.66
2023-04-11T07:53:34.157Z,101964.63
2023-04-11T07:56:01.513Z,101963.75
2023-04-11T07:58:28.665Z,101958.44
2023-04-11T08:00:55.894Z,101963.53
2023-04-11T08:03:23.812Z,101967.00
2023-04-11T08:05:52.311Z,101964.31
2023-04-11T08:08:19.342Z,101936.34
2023-04-11T08:10:46.276Z,101969.44
2023-04-11T08:13:13.610Z,101889.06
2023-04-11T08:15:40.554Z,101957.97
2023-04-11T08:18:07.481Z,101961.34
2023-04-11T08:20:34.949Z,101943.78
2023-04-11T08:23:06.275Z,101937.66
2023-04-11T08:25:33.427Z,101926.19
2023-04-11T08:28:00.628Z,101954.84
2023-04-11T08:30:27.727Z,101954.75
2023-04-11T08:32:54.749Z,101952.94
2023-04-11T08:35:21.661Z,101956.41
2023-04-11T08:37:49.566Z,101956.34
2023-04-11T08:40:16.839Z,101951.00
2023-04-11T08:42:44.577Z,101940.50
2023-04-11T08:45:11.838Z,101954.38
2023-04-11T08:47:38.804Z,101946.38
2023-04-11T08:50:07.000Z,101930.66
2023-04-11T08:52:34.471Z,101940.13
2023-04-11T08:55:01.774Z,101947.97
2023-04-11T08:57:33.383Z,101944.34
2023-04-11T09:00:14.434Z,101877.09
2023-04-11T09:03:05.812Z,101939.78
2023-04-11T09:05:41.035Z,101937.94
2023-04-11T09:08:13.493Z,101885.50
2023-04-11T09:10:45.073Z,101926.38
2023-04-11T09:13:24.290Z,101926.22
2023-04-11T09:16:04.791Z,101872.16
2023-04-11T09:18:37.204Z,101928.69
2023-04-11T09:21:09.973Z,101928.59
2023-04-11T09:23:37.689Z,101918.81
2023-04-11T09:26:09.600Z,101914.25
2023-04-11T09:28:53.462Z,101891.53
2023-04-11T09:31:21.945Z,101880.13
2023-04-11T09:33:56.390Z,101914.81
2023-04-11T09:36:25.443Z,101914.75
2023-04-11T09:38:52.771Z,101908.50
2023-04-11T09:41:34.176Z,101892.59
2023-04-11T09:44:02.024Z,101901.19
2023-04-11T09:46:28.883Z,101844.50
2023-04-11T09:48:56.674Z,101899.28
2023-04-11T09:51:35.881Z,101896.53
2023-04-11T09:54:04.954Z,101896.44
2023-04-11T09:56:34.272Z,101865.94
2023-04-11T09:59:02.949Z,101887.50
2023-04-11T10:01:29.983Z,101897.09
2023-04-11T10:03:57.716Z,101892.59
2023-04-11T10:06:31.937Z,101894.28
2023-04-11T10:09:11.477Z,101826.22
2023-04-11T10:11:45.449Z,101839.28
2023-04-11T10:14:38.448Z,101879.91
2023-04-11T10:17:21.218Z,101884.34
2023-04-11T10:19:56.569Z,101838.88
2023-04-11T10:22:46.735Z,101878.91
2023-04-11T10:25:17.529Z,101866.59
2023-04-11T10:28:04.265Z,101858.59
2023-04-11T10:31:02.045Z,101882.19
2023-04-11T10:33:29.258Z,101874.22
2023-04-11T10:36:00.031Z,101875.88
2023-04-11T10:38:48.663Z,101875.81
2023-04-11T10:41:33.968Z,101881.94
2023-04-11T10:44:15.275Z,101866.09
2023-04-11T10:46:55.860Z,101875.66
2023-04-11T10:49:34.616Z,101866.69
2023-04-11T10:52:18.357Z,101854.66
2023-04-11T10:54:46.829Z,101858.81
2023-04-11T10:57:14.593Z,101870.91
2023-04-11T10:59:44.248Z,101865.53
2023-04-11T11:02:12.120Z,101865.47
2023-04-11T11:04:40.204Z,101857.53
2023-04-11T11:07:14.143Z,101857.44
2023-04-11T11:09:41.301Z,101866.06
2023-04-11T11:12:14.915Z,101863.34
2023-04-11T11:14:44.130Z,101864.09
2023-04-11T11:17:13.109Z,101860.50
2023-04-11T11:19:48.058Z,101865.72
2023-04-11T11:22:25.505Z,101867.41
2023-04-11T11:24:53.051Z,101853.13
2023-04-11T11:27:22.636Z,101860.13
2023-04-11T11:29:50.637Z,101857.41
2023-04-11T11:32:24.197Z,101843.38
2023-04-11T11:34:52.941Z,101857.22
2023-04-11T11:37:21.165Z,101855.38
2023-04-11T11:39:49.208Z,101830.16
2023-04-11T11:42:16.596Z,101852.69
2023-04-11T11:44:43.469Z,101844.78
2023-04-11T11:47:16.824Z,101848.91
2023-04-11T11:49:54.399Z,101855.91
2023-04-11T11:52:34.662Z,101836.63
2023-04-11T11:55:06.846Z,101830.47
2023-04-11T11:57:34.551Z,101846.94
2023-04-11T12:00:05.950Z,101850.44
2023-04-11T12:02:36.155Z,101837.25
2023-04-11T12:05:06.692Z,101841.63
2023-04-11T12:07:36.786Z,101842.44
2023-04-11T12:10:09.539Z,101797.97
2023-04-11T12:12:41.976Z,101784.84
2023-04-11T12:15:12.920Z,101835.19
2023-04-11T12:17:40.403Z,101766.44
2023-04-11T12:20:10.773Z,101827.38
2023-04-11T12:22:38.521Z,101836.84
2023-04-11T12:25:15.630Z,101840.41
2023-04-11T12:27:44.190Z,101835.94
2023-04-11T12:30:15.217Z,101829.78
2023-04-11T12:32:43.391Z,101838.63
2023-04-11T12:35:11.038Z,101838.69
2023-04-11T12:37:38.436Z,101836.97
2023-04-11T12:40:12.767Z,101813.34
2023-04-11T12:45:12.124Z,101837.91
2023-04-11T12:47:39.542Z,101827.56
2023-04-11T12:50:07.463Z,101829.97
2023-04-11T12:52:34.737Z,101814.28
2023-04-11T12:55:02.117Z,101832.69
2023-04-11T12:57:29.722Z,101833.63
2023-04-11T12:59:56.874Z,101831.09
2023-04-11T13:02:23.932Z,101831.84
2023-04-11T13:04:55.031Z,101808.28
2023-04-11T13:07:22.283Z,101835.44
2023-04-11T13:09:49.862Z,101825.75
2023-04-11T13:12:17.112Z,101820.59
2023-04-11T13:14:44.109Z,101830.22
2023-04-11T13:17:11.417Z,101811.97
2023-04-11T13:19:38.433Z,101818.13
2023-04-11T13:22:05.534Z,101827.56
2023-04-11T13:24:32.944Z,101822.34
2023-04-11T13:26:59.854Z,101826.69
2023-04-11T13:29:27.082Z,101824.97
2023-04-11T13:31:54.145Z,101813.59
2023-04-11T13:34:21.210Z,101825.84
2023-04-11T13:36:48.698Z,101824.03
2023-04-11T13:39:16.090Z,101815.19
2023-04-11T13:41:42.965Z,101780.53
2023-04-11T13:44:10.057Z,101807.19
2023-04-11T13:46:36.986Z,101818.63
2023-04-11T13:49:06.168Z,101821.22
2023-04-11T13:51:33.350Z,101816.78
2023-04-11T13:54:01.149Z,101816.78
2023-04-11T13:56:28.069Z,101802.63
2023-04-11T13:58:55.330Z,101807.06
2023-04-11T14:01:22.586Z,101798.19
2023-04-11T14:03:50.255Z,101789.50
2023-04-11T14:06:19.334Z,101800.81
2023-04-11T14:08:48.559Z,101776.38
2023-04-11T14:11:16.442Z,101770.38
2023-04-11T14:13:43.443Z,101740.78
2023-04-11T14:16:11.500Z,101756.50
2023-04-11T14:18:38.519Z,101792.00
2023-04-11T14:21:06.192Z,101793.88
2023-04-11T14:23:33.687Z,101781.66
2023-04-11T14:26:00.615Z,101793.81
2023-04-11T14:28:27.665Z,101798.25
2023-04-11T14:30:56.276Z,101774.66
2023-04-11T14:33:23.455Z,101732.03
2023-04-11T14:35:51.008Z,101765.91
2023-04-11T14:38:18.227Z,101742.41
2023-04-11T14:40:45.162Z,101792.06
2023-04-11T14:43:12.326Z,101787.56
2023-04-11T14:45:39.369Z,101783.16
2023-04-11T14:48:06.884Z,101762.22
2023-04-11T14:50:34.008Z,101760.28
2023-04-11T14:53:01.257Z,101772.41
2023-04-11T14:55:28.204Z,101770.63
2023-04-11T14:57:56.052Z,101763.63
2023-04-11T15:00:24.543Z,101775.88
2023-04-11T15:02:56.318Z,101769.72
2023-04-11T15:05:24.494Z,101767.00
2023-04-11T15:07:53.097Z,101728.72
2023-04-11T15:10:22.884Z,101753.03
2023-04-11T15:12:50.348Z,101759.00
2023-04-11T15:15:17.458Z,101732.94
2023-04-11T15:17:49.358Z,101729.31
2023-04-11T15:20:16.973Z,101750.25
2023-04-11T15:22:45.896Z,101756.22
2023-04-11T15:25:15.484Z,101757.13
2023-04-11T15:27:42.830Z,101751.75
2023-04-11T15:30:11.353Z,101722.22
2023-04-11T15:32:43.678Z,101747.28
2023-04-11T15:35:11.156Z,101750.81
2023-04-11T15:37:38.128Z,101734.22
2023-04-11T15:40:06.234Z,101726.13
2023-04-11T15:42:35.448Z,101724.50
2023-04-11T15:45:02.927Z,101753.31
2023-04-11T15:47:30.431Z,101747.97
2023-04-11T15:49:59.065Z,101722.53
2023-04-11T15:52:26.450Z,101738.06
2023-04-11T15:54:53.786Z,101731.75
2023-04-11T15:57:21.038Z,101733.44
2023-04-11T15:59:48.468Z,101732.47
2023-04-11T16:02:15.691Z,101727.91
2023-04-11T16:04:44.748Z,101731.34
2023-04-11T16:07:14.070Z,101733.00
2023-04-11T16:09:40.978Z,101735.59
2023-04-11T16:12:07.872Z,101725.69
2023-04-11T16:14:34.807Z,101705.75
2023-04-11T16:17:01.663Z,101722.94
2023-04-11T16:19:28.906Z,101725.53
2023-04-11T16:21:55.875Z,101719.38
2023-04-11T16:24:22.733Z,101720.22
2023-04-11T16:26:49.677Z,101717.63
2023-04-11T16:29:16.611Z,101714.91
2023-04-11T16:31:43.647Z,101696.63
2023-04-11T16:34:10.627Z,101707.97
2023-04-11T16:36:37.804Z,101705.47
2023-04-11T16:39:04.795Z,101716.09
2023-04-11T16:41:36.294Z,101703.81
2023-04-11T16:44:11.333Z,101711.88
2023-04-11T16:46:39.481Z,101688.56
2023-04-11T16:49:06.710Z,101709.41
2023-04-11T16:51:36.444Z,101668.78
2023-04-11T16:54:06.909Z,101712.34
2023-04-11T16:56:33.852Z,101713.38
2023-04-11T16:59:01.481Z,101624.81
2023-04-11T17:01:28.522Z,101706.03
2023-04-11T17:03:56.039Z,101720.03
2023-04-11T17:06:23.818Z,101713.06
2023-04-11T17:08:50.707Z,101705.41
2023-04-11T17:11:17.582Z,101712.44
2023-04-11T17:13:45.781Z,101713.53
2023-04-11T17:16:13.787Z,101704.84
2023-04-11T17:18:41.058Z,101696.44
2023-04-11T17:21:08.133Z,101725.38
2023-04-11T17:23:43.176Z,101713.09
2023-04-11T17:26:12.050Z,101709.72
2023-04-11T17:28:39.886Z,101707.19
2023-04-11T17:31:14.710Z,101709.16
2023-04-11T17:33:42.379Z,101711.06
2023-04-11T17:36:11.349Z,101708.56
2023-04-11T17:38:39.731Z,101690.53
2023-04-11T17:41:14.578Z,101704.44
2023-04-11T17:43:43.426Z,101707.28
2023-04-11T17:46:10.628Z,101715.38
2023-04-11T17:48:37.913Z,101716.41
2023-04-11T17:51:06.902Z,101699.94
2023-04-11T17:53:34.203Z,101712.31
2023-04-11T17:56:05.898Z,101717.69
2023-04-11T17:58:33.547Z,101711.78
2023-04-11T18:01:00.568Z,101718.84
2023-04-11T18:03:28.345Z,101724.28
2023-04-11T18:05:56.460Z,101656.56
2023-04-11T18:08:36.180Z,101717.44
2023-04-11T18:11:10.117Z,101719.38
2023-04-11T18:13:36.955Z,101723.06
2023-04-11T18:16:04.344Z,101720.50
2023-04-11T18:18:32.334Z,101716.25
2023-04-11T18:21:05.059Z,101657.22
2023-04-11T18:23:34.470Z,101657.44
2023-04-11T18:26:01.653Z,101698.53
2023-04-11T18:28:28.956Z,101729.09
2023-04-11T18:30:56.320Z,101726.56
2023-04-11T18:33:23.297Z,101710.94
2023-04-11T18:35:50.205Z,101723.28
2023-04-11T18:38:17.721Z,101718.13
2023-04-11T18:40:44.592Z,101713.97
2023-04-11T18:43:11.909Z,101726.28
2023-04-11T18:45:39.417Z,101721.09
2023-04-11T18:48:07.295Z,101723.88
2023-04-11T18:50:38.827Z,101680.56
2023-04-11T18:53:10.515Z,101716.16
2023-04-11T18:55:40.643Z,101721.63
2023-04-11T18:58:09.722Z,101653.88
2023-04-11T19:00:39.192Z,101728.88
2023-04-11T19:03:14.876Z,101723.72
2023-04-11T19:05:43.979Z,101728.19
2023-04-11T19:08:11.444Z,101731.81
2023-04-11T19:10:38.442Z,101724.91
2023-04-11T19:13:06.254Z,101722.38
2023-04-11T19:15:33.234Z,101733.03
2023-04-11T19:18:00.774Z,101720.81
2023-04-11T19:20:29.455Z,101721.00
2023-04-11T19:22:57.046Z,101718.34
2023-04-11T19:25:24.508Z,101723.78
2023-04-11T19:27:51.673Z,101732.63
2023-04-11T19:30:18.737Z,101719.56
2023-04-11T19:32:47.672Z,101734.56
2023-04-11T19:35:15.224Z,101733.72
2023-04-11T19:37:42.872Z,101720.66
2023-04-11T19:40:16.736Z,101722.53
2023-04-11T19:42:44.895Z,101732.19
2023-04-11T19:45:12.319Z,101729.63
2023-04-11T19:47:40.813Z,101732.34
2023-04-11T19:50:13.318Z,101728.88
2023-04-11T19:52:41.979Z,101722.81
2023-04-11T19:55:10.737Z,101720.34
2023-04-11T19:57:41.249Z,101722.91
2023-04-11T20:00:17.563Z,101716.03
2023-04-11T20:02:46.595Z,101725.66
2023-04-11T20:05:16.052Z,101725.72
2023-04-11T20:07:44.149Z,101655.34
2023-04-11T20:10:12.296Z,101727.63
2023-04-11T20:12:39.613Z,101718.03
2023-04-11T20:15:08.060Z,101731.19
2023-04-11T20:17:35.701Z,101734.75
2023-04-11T20:20:06.617Z,101733.03
2023-04-11T20:22:33.876Z,101741.88
2023-04-11T20:25:00.981Z,101718.34
2023-04-11T20:27:28.268Z,101731.41
2023-04-11T20:29:56.857Z,101727.13
2023-04-11T20:32:24.483Z,101721.00
2023-04-11T20:34:51.445Z,101735.91
2023-04-11T20:37:19.595Z,101734.22
2023-04-11T20:39:47.103Z,101732.50
2023-04-11T20:42:14.079Z,101735.19
2023-04-11T20:44:41.753Z,101746.63
2023-04-11T20:47:09.183Z,101733.47
2023-04-11T20:49:36.317Z,101731.75
2023-04-11T20:52:03.880Z,101734.44
2023-04-11T20:54:30.851Z,101741.50
2023-04-11T20:56:58.176Z,101693.53
2023-04-11T20:59:26.691Z,101735.41
2023-04-11T21:01:53.822Z,101738.09
2023-04-11T21:04:22.111Z,101715.44
2023-04-11T21:06:50.098Z,101732.84
2023-04-11T21:09:17.669Z,101722.44
2023-04-11T21:11:44.686Z,101736.44
2023-04-11T21:14:11.639Z,101692.94
2023-04-11T21:16:38.673Z,101744.44
2023-04-11T21:19:06.013Z,101721.72
2023-04-11T21:21:33.519Z,101730.47
2023-04-11T21:24:01.429Z,101740.97
2023-04-11T21:26:28.311Z,101694.69
2023-04-11T21:28:55.248Z,101733.06
2023-04-11T21:31:22.346Z,101729.59
2023-04-11T21:33:49.255Z,101678.22
2023-04-11T21:36:16.236Z,101720.84
2023-04-11T21:38:43.086Z,101658.22
2023-04-11T21:41:09.951Z,101729.66
2023-04-11T21:43:37.073Z,101711.34
2023-04-11T21:46:04.114Z,101720.88
2023-04-11T21:48:31.189Z,101724.44
2023-04-11T21:50:58.154Z,101693.09
2023-04-11T21:53:25.082Z,101729.75
2023-04-11T21:55:52.067Z,101727.97
2023-04-11T21:58:29.201Z,101727.25
2023-04-11T22:00:56.980Z,101731.59
2023-04-11T22:03:24.351Z,101735.09
2023-04-11T22:05:52.471Z,101721.19
2023-04-11T22:08:22.823Z,101735.13
2023-04-11T22:10:50.818Z,101729.94
2023-04-11T22:13:19.517Z,101738.66
2023-04-11T22:15:48.838Z,101741.31
2023-04-11T22:18:18.077Z,101720.41
2023-04-11T22:20:48.685Z,101736.94
2023-04-11T22:23:17.439Z,101744.88
2023-04-11T22:25:44.622Z,101738.75
2023-04-11T22:28:18.322Z,101744.94
2023-04-11T22:30:48.434Z,101745.81
2023-04-11T22:33:15.600Z,101744.09
2023-04-11T22:35:47.751Z,101737.94
2023-04-11T22:38:15.906Z,101730.09
2023-04-11T22:40:43.302Z,101734.50
2023-04-11T22:43:10.794Z,101735.38
2023-04-11T22:45:37.900Z,101738.91
2023-04-11T22:48:06.163Z,101717.03
2023-04-11T22:50:38.043Z,101730.13
2023-04-11T22:53:05.549Z,101726.69
2023-04-11T22:55:35.670Z,101720.53
2023-04-11T22:58:03.454Z,101724.94
2023-04-11T23:00:30.598Z,101727.59
2023-04-11T23:02:59.757Z,101722.44
2023-04-11T23:05:27.074Z,101669.28
2023-04-11T23:07:54.247Z,101684.25
2023-04-11T23:10:21.387Z,101731.22
2023-04-11T23:12:49.417Z,101731.22
2023-04-11T23:15:17.492Z,101722.47
2023-04-11T23:17:45.006Z,101705.91
2023-04-11T23:20:15.495Z,101720.78
2023-04-11T23:22:42.541Z,101709.47
2023-04-11T23:25:12.732Z,101719.00
2023-04-11T23:27:39.965Z,101714.63
2023-04-11T23:30:07.774Z,101721.69
2023-04-11T23:32:34.971Z,101719.97
2023-04-11T23:35:03.172Z,101711.22
2023-04-11T23:37:31.739Z,101713.91
2023-04-11T23:39:59.382Z,101721.78
2023-04-11T23:42:26.360Z,101679.97
2023-04-11T23:44:53.430Z,101704.44
2023-04-11T23:47:20.461Z,101706.13
2023-04-11T23:49:47.369Z,101713.97
2023-04-11T23:52:14.284Z,101709.63
2023-04-11T23:54:41.749Z,101712.28
2023-04-11T23:57:08.936Z,101689.69
2023-04-11T23:59:36.293Z,101714.06
